createdAt,value
2022-12-16T00:01:53.592Z,110.05
2022-12-16T00:06:56.387Z,104.10
2022-12-16T00:11:57.835Z,110.88
2022-12-16T00:16:59.240Z,104.10
2022-12-16T00:22:00.689Z,106.88
2022-12-16T00:27:02.181Z,106.50
2022-12-16T00:32:03.915Z,111.85
2022-12-16T00:37:05.382Z,108.60
2022-12-16T00:42:06.808Z,115.97
2022-12-16T00:47:08.237Z,114.15
2022-12-16T00:52:09.639Z,111.03
2022-12-16T00:57:11.062Z,115.35
2022-12-16T01:02:12.526Z,112.18
2022-12-16T01:07:14.026Z,102.30
2022-12-16T01:12:15.514Z,107.82
2022-12-16T01:17:16.989Z,88.22
2022-12-16T01:22:18.705Z,92.18
2022-12-16T01:27:20.148Z,94.35
2022-12-16T01:32:21.969Z,94.75
2022-12-16T01:37:24.362Z,90.38
2022-12-16T01:42:28.821Z,96.68
2022-12-16T01:47:33.285Z,84.55
2022-12-16T01:52:41.150Z,84.28
2022-12-16T01:57:50.336Z,88.88
2022-12-16T02:02:53.874Z,92.78
2022-12-16T02:08:10.382Z,84.65
2022-12-16T02:13:26.745Z,84.72
2022-12-16T02:18:43.149Z,89.00
2022-12-16T02:24:09.160Z,85.93
2022-12-16T02:29:42.716Z,82.13
2022-12-16T02:34:47.132Z,88.22
2022-12-16T02:40:04.137Z,84.45
2022-12-16T02:45:13.287Z,78.32
2022-12-16T02:50:20.713Z,85.25
2022-12-16T02:55:32.788Z,81.15
2022-12-16T03:00:47.687Z,88.68
2022-12-16T03:05:52.106Z,75.75
2022-12-16T03:10:59.824Z,77.03
2022-12-16T03:16:02.945Z,78.70
2022-12-16T03:21:07.742Z,90.22
2022-12-16T03:26:15.970Z,83.35
2022-12-16T03:31:27.060Z,80.28
2022-12-16T03:36:32.253Z,78.95
2022-12-16T03:41:34.898Z,76.32
2022-12-16T03:46:36.684Z,73.43
2022-12-16T03:51:38.166Z,78.13
2022-12-16T03:56:39.617Z,71.75
2022-12-16T04:01:41.706Z,78.82
2022-12-16T04:06:43.300Z,69.13
2022-12-16T04:12:03.421Z,72.20
2022-12-16T04:17:24.404Z,65.72
2022-12-16T04:22:48.414Z,63.92
2022-12-16T04:27:50.154Z,69.65
2022-12-16T04:33:17.449Z,70.15
2022-12-16T04:38:37.670Z,68.78
2022-12-16T04:43:57.640Z,71.05
2022-12-16T04:49:18.664Z,68.28
2022-12-16T04:54:38.452Z,74.53
2022-12-16T04:59:58.652Z,72.72
2022-12-16T05:05:18.691Z,72.35
2022-12-16T05:10:38.908Z,67.25
2022-12-16T05:15:59.589Z,59.97
2022-12-16T05:21:20.972Z,63.97
2022-12-16T05:26:41.016Z,66.10
2022-12-16T05:32:01.186Z,66.25
2022-12-16T05:37:21.163Z,60.30
2022-12-16T05:42:41.292Z,64.82
2022-12-16T05:48:01.423Z,51.92
2022-12-16T05:53:22.158Z,57.85
2022-12-16T05:58:42.312Z,57.28
2022-12-16T06:04:02.594Z,56.67
2022-12-16T06:09:22.978Z,54.53
2022-12-16T06:14:43.178Z,53.88
2022-12-16T06:20:03.225Z,57.00
2022-12-16T06:25:23.922Z,63.25
2022-12-16T06:30:43.820Z,52.92
2022-12-16T06:36:03.931Z,62.80
2022-12-16T06:41:24.050Z,62.30
2022-12-16T06:46:44.198Z,62.63
2022-12-16T06:52:04.259Z,63.05
2022-12-16T06:57:24.167Z,62.58
2022-12-16T07:02:44.392Z,63.03
2022-12-16T07:08:11.025Z,67.18
2022-12-16T07:13:31.512Z,59.85
2022-12-16T07:18:51.671Z,52.65
2022-12-16T07:24:11.604Z,61.78
2022-12-16T07:29:31.680Z,54.70
2022-12-16T07:34:51.859Z,56.90
2022-12-16T07:40:11.867Z,52.40
2022-12-16T07:45:32.005Z,55.95
2022-12-16T07:50:51.971Z,56.40
2022-12-16T07:56:12.987Z,53.50
2022-12-16T08:01:33.147Z,57.17
2022-12-16T08:06:53.204Z,62.40
2022-12-16T08:12:13.121Z,71.65
2022-12-16T08:17:33.207Z,66.43
2022-12-16T08:22:53.316Z,74.18
2022-12-16T08:28:15.897Z,69.20
2022-12-16T08:33:36.219Z,74.85
2022-12-16T08:38:56.549Z,68.03
2022-12-16T08:44:16.564Z,69.80
2022-12-16T08:49:36.759Z,70.03
2022-12-16T08:54:56.819Z,76.05
2022-12-16T09:00:17.006Z,73.00
2022-12-16T09:05:37.136Z,75.43
2022-12-16T09:10:57.276Z,81.50
2022-12-16T09:16:19.772Z,77.03
2022-12-16T09:21:40.484Z,81.10
2022-12-16T09:27:00.217Z,86.38
2022-12-16T09:32:20.097Z,75.05
2022-12-16T09:37:40.256Z,87.90
2022-12-16T09:43:05.822Z,83.18
2022-12-16T09:48:37.443Z,79.97
2022-12-16T09:53:59.038Z,86.25
2022-12-16T09:59:24.771Z,87.95
2022-12-16T10:04:44.826Z,84.85
2022-12-16T10:10:21.998Z,86.85
2022-12-16T10:15:44.996Z,93.95
2022-12-16T10:21:10.935Z,100.95
2022-12-16T10:26:35.456Z,96.47
2022-12-16T10:31:56.060Z,91.97
2022-12-16T10:37:20.960Z,92.40
2022-12-16T10:42:48.913Z,96.07
2022-12-16T10:48:08.945Z,88.97
2022-12-16T10:53:45.058Z,85.45
2022-12-16T10:59:12.602Z,93.60
2022-12-16T11:04:51.666Z,93.22
2022-12-16T11:10:19.878Z,88.32
2022-12-16T11:15:50.029Z,83.97
2022-12-16T11:21:24.788Z,86.57
2022-12-16T11:26:44.730Z,85.53
2022-12-16T11:32:09.473Z,89.53
2022-12-16T11:37:29.223Z,87.93
2022-12-16T11:42:51.353Z,92.95
2022-12-16T11:48:15.022Z,90.18
2022-12-16T11:53:44.217Z,83.88
2022-12-16T11:59:11.469Z,92.80
2022-12-16T12:04:33.150Z,92.68
2022-12-16T12:09:59.988Z,100.13
2022-12-16T12:15:20.097Z,93.68
2022-12-16T12:21:05.954Z,92.00
2022-12-16T12:26:32.131Z,90.95
2022-12-16T12:32:04.405Z,98.00
2022-12-16T12:37:27.359Z,98.03
2022-12-16T12:42:57.155Z,98.93
2022-12-16T12:48:56.098Z,95.85
2022-12-16T12:54:33.231Z,96.80
2022-12-16T13:00:02.231Z,93.93
2022-12-16T13:05:24.759Z,95.10
2022-12-16T13:10:44.738Z,94.15
2022-12-16T13:16:04.995Z,91.95
2022-12-16T13:22:04.920Z,96.60
2022-12-16T13:27:31.575Z,88.10
2022-12-16T13:32:52.075Z,96.38
2022-12-16T13:38:25.038Z,98.47
2022-12-16T13:44:03.700Z,100.85
2022-12-16T13:50:09.278Z,100.87
2022-12-16T13:55:38.123Z,96.20
2022-12-16T14:01:00.319Z,98.87
2022-12-16T14:06:23.540Z,93.80
2022-12-16T14:12:05.570Z,101.95
2022-12-16T14:17:32.327Z,96.38
2022-12-16T14:23:32.760Z,105.63
2022-12-16T14:29:00.517Z,105.75
2022-12-16T14:34:22.597Z,102.53
2022-12-16T14:39:48.513Z,104.85
2022-12-16T14:45:08.572Z,98.78
2022-12-16T14:50:45.270Z,102.43
2022-12-16T14:56:05.243Z,102.35
2022-12-16T15:01:36.326Z,104.32
2022-12-16T15:07:03.156Z,106.68
2022-12-16T15:12:25.479Z,110.38
2022-12-16T15:18:14.752Z,111.20
2022-12-16T15:23:57.937Z,98.78
2022-12-16T15:29:18.034Z,105.82
2022-12-16T15:34:49.353Z,104.88
2022-12-16T15:40:09.462Z,104.45
2022-12-16T15:45:41.251Z,109.88
2022-12-16T15:51:12.061Z,102.40
2022-12-16T15:56:40.869Z,105.03
2022-12-16T16:02:04.838Z,103.53
2022-12-16T16:07:35.405Z,95.18
2022-12-16T16:12:55.465Z,100.13
2022-12-16T16:18:24.484Z,102.25
2022-12-16T16:23:44.370Z,94.35
2022-12-16T16:29:04.428Z,99.70
2022-12-16T16:34:24.282Z,109.45
2022-12-16T16:39:44.483Z,98.30
2022-12-16T16:45:04.709Z,95.65
2022-12-16T16:50:25.516Z,99.43
2022-12-16T16:55:45.624Z,99.93
2022-12-16T17:01:05.851Z,92.60
2022-12-16T17:06:25.798Z,105.22
2022-12-16T17:11:46.845Z,104.63
2022-12-16T17:17:06.951Z,97.82
2022-12-16T17:22:27.078Z,107.40
2022-12-16T17:27:47.302Z,105.40
2022-12-16T17:33:07.395Z,103.93
2022-12-16T17:38:32.022Z,114.25
2022-12-16T17:43:52.206Z,105.82
2022-12-16T17:49:17.368Z,105.35
2022-12-16T17:54:37.531Z,101.53
2022-12-16T17:59:57.532Z,111.35
2022-12-16T18:05:17.788Z,105.90
2022-12-16T18:10:37.782Z,114.70
2022-12-16T18:15:58.067Z,115.50
2022-12-16T18:21:30.774Z,119.93
2022-12-16T18:26:50.901Z,119.93
2022-12-16T18:32:10.958Z,117.88
2022-12-16T18:37:32.512Z,111.65
2022-12-16T18:42:52.540Z,119.25
2022-12-16T18:48:12.582Z,115.65
2022-12-16T18:53:33.110Z,118.28
2022-12-16T18:58:54.349Z,114.97
2022-12-16T19:04:16.087Z,128.32
2022-12-16T19:09:35.926Z,117.45
2022-12-16T19:14:55.897Z,126.10
2022-12-16T19:20:16.171Z,123.15
2022-12-16T19:25:36.156Z,120.78
2022-12-16T19:30:56.494Z,116.40
2022-12-16T19:36:16.415Z,129.90
2022-12-16T19:41:37.042Z,123.82
2022-12-16T19:46:57.090Z,132.48
2022-12-16T19:52:17.320Z,125.75
2022-12-16T19:57:37.411Z,126.43
2022-12-16T20:02:57.823Z,118.75
2022-12-16T20:08:17.938Z,128.52
2022-12-16T20:13:37.842Z,131.50
2022-12-16T20:18:57.920Z,127.97
2022-12-16T20:24:17.996Z,137.57
2022-12-16T20:29:37.964Z,132.18
2022-12-16T20:34:58.105Z,137.80
2022-12-16T20:40:18.270Z,131.98
2022-12-16T20:45:38.448Z,135.38
2022-12-16T20:50:58.515Z,135.35
2022-12-16T20:56:24.191Z,139.90
2022-12-16T21:02:21.729Z,134.55
2022-12-16T21:07:35.798Z,130.07
2022-12-16T21:12:55.774Z,129.70
2022-12-16T21:18:21.007Z,132.15
2022-12-16T21:23:41.430Z,134.18
2022-12-16T21:29:01.765Z,136.02
2022-12-16T21:34:22.691Z,132.45
2022-12-16T21:39:42.545Z,123.53
2022-12-16T21:45:02.807Z,137.80
2022-12-16T21:50:23.195Z,128.20
2022-12-16T21:55:43.609Z,132.00
2022-12-16T22:01:03.950Z,136.00
2022-12-16T22:06:24.339Z,120.70
2022-12-16T22:11:44.498Z,130.95
2022-12-16T22:17:05.823Z,135.55
2022-12-16T22:22:25.885Z,125.65
2022-12-16T22:27:46.093Z,134.45
2022-12-16T22:33:06.319Z,143.43
2022-12-16T22:38:43.171Z,131.15
2022-12-16T22:44:03.529Z,132.20
2022-12-16T22:49:23.632Z,140.88
2022-12-16T22:54:43.968Z,142.20
2022-12-16T23:00:04.225Z,126.70
2022-12-16T23:05:27.720Z,130.57
2022-12-16T23:10:48.441Z,133.38
2022-12-16T23:16:08.627Z,140.75
2022-12-16T23:21:35.168Z,130.55
2022-12-16T23:26:55.250Z,133.88
2022-12-16T23:32:16.105Z,143.65
2022-12-16T23:37:36.777Z,133.13
2022-12-16T23:42:56.888Z,130.00
2022-12-16T23:48:26.518Z,132.15
2022-12-16T23:59:06.622Z,140.27
